Time;durP1;ratioP1;P1;durP2;ratioP2;P2;SDS_P1;SDS_P2;PMS_P1;PMS_P2;Temp;Humidity;BMP_temperature;BMP_pressure;BME280_temperature;BME280_humidity;BME280_pressure;Samples;Min_cycle;Max_cycle;Signal;HPM_P1;HPM_P2
2022/12/17 13:07:20;;;;;;;42.53;27.80;;;;;;;2.11;41.85;98764.91;8316214;28;20406;-74
2022/12/17 13:11:29;;;;;;;41.43;29.17;;;;;;;2.68;42.11;98806.75;8346935;28;20225;-74
2022/12/17 13:15:36;;;;;;;43.83;28.50;;;;;;;2.76;41.86;98816.13;8346893;28;20229;-74
2022/12/17 13:19:41;;;;;;;41.47;27.43;;;;;;;2.91;41.76;98818.69;8346977;28;20229;-72
2022/12/17 13:23:44;;;;;;;43.40;28.90;;;;;;;2.72;41.33;98782.91;8346699;28;20237;-73
2022/12/17 13:27:47;;;;;;;41.80;29.43;;;;;;;2.13;43.20;98827.09;8346261;28;20415;-73
2022/12/17 13:32:08;;;;;;;42.20;28.93;;;;;;;3.21;48.85;98810.16;8346687;28;20233;-72
2022/12/17 13:36:15;;;;;;;41.93;28.93;;;;;;;3.02;42.13;98839.16;8346746;28;20249;-73
2022/12/17 13:40:31;;;;;;;40.40;27.30;;;;;;;3.09;42.44;98831.50;8346096;28;20225;-72
2022/12/17 13:44:39;;;;;;;42.63;28.37;;;;;;;2.90;42.22;98840.88;8346364;28;20237;-73
2022/12/17 13:48:43;;;;;;;38.33;27.27;;;;;;;2.96;43.04;98840.03;8346204;28;20363;-72
2022/12/17 13:52:46;;;;;;;39.30;27.83;;;;;;;2.92;42.75;98841.72;8345985;28;20221;-75
2022/12/17 13:56:49;;;;;;;39.23;27.70;;;;;;;2.96;42.01;98849.41;8345899;28;20249;-73
2022/12/17 14:00:52;;;;;;;39.27;27.67;;;;;;;3.03;42.66;98854.53;8345823;28;20252;-75
2022/12/17 14:04:57;;;;;;;38.90;27.33;;;;;;;3.00;42.34;98854.53;8345665;28;20404;-75
2022/12/17 14:09:06;;;;;;;37.50;26.93;;;;;;;3.26;41.80;98858.78;8346177;28;20555;-75
2022/12/17 14:13:10;;;;;;;45.43;30.43;;;;;;;2.85;41.87;98872.41;8346117;28;20237;-75
2022/12/17 14:17:20;;;;;;;46.90;31.43;;;;;;;3.28;40.95;98877.56;8346487;28;20229;-75
2022/12/17 14:21:25;;;;;;;48.80;33.30;;;;;;;3.14;40.86;98885.22;8345994;28;20232;-74
2022/12/17 14:25:30;;;;;;;46.67;32.50;;;;;;;2.77;41.79;98884.34;8345664;28;20355;-75
2022/12/17 14:29:33;;;;;;;43.13;29.53;;;;;;;1.95;43.47;98886.63;8345854;28;20241;-75
2022/12/17 14:33:37;;;;;;;47.73;31.67;;;;;;;2.59;41.83;98891.16;8345991;28;20233;-75
2022/12/17 14:37:46;;;;;;;50.97;33.07;;;;;;;2.26;43.26;98881.66;8345677;28;20525;-75
2022/12/17 14:46:21;;;;;;;53.90;31.57;;;;;;;1.66;44.04;98881.38;8344869;28;20225;-75
2022/12/17 14:50:27;;;;;;;52.33;33.67;;;;;;;2.02;44.09;98883.28;8345604;28;20230;-74
2022/12/17 14:54:31;;;;;;;55.17;35.57;;;;;;;2.13;43.61;98883.31;8350436;28;20401;-74
2022/12/17 14:58:45;;;;;;;67.90;39.60;;;;;;;1.66;44.49;98882.22;8351053;28;20232;-75
2022/12/17 15:02:51;;;;;;;54.73;35.40;;;;;;;1.67;44.50;98896.69;8351381;28;20229;-75
2022/12/17 15:06:54;;;;;;;57.77;35.07;;;;;;;1.65;44.72;98893.28;8350478;28;20236;-76
2022/12/17 15:10:59;;;;;;;49.27;33.17;;;;;;;1.50;45.79;98901.69;8350939;28;20388;-75
2022/12/17 15:15:01;;;;;;;50.80;33.00;;;;;;;1.58;45.20;98901.75;8350943;28;20248;-75
2022/12/17 15:19:04;;;;;;;48.87;33.17;;;;;;;1.40;44.66;98901.63;8350820;28;20295;-75
2022/12/17 15:23:13;;;;;;;53.70;33.50;;;;;;;1.33;45.40;98898.16;8350764;28;20241;-74
2022/12/17 15:27:17;;;;;;;52.57;32.77;;;;;;;1.22;45.28;98907.41;8350398;28;20233;-75
2022/12/17 15:31:20;;;;;;;56.47;35.07;;;;;;;1.44;45.32;98911.84;8350550;28;20233;-75
2022/12/17 15:35:28;;;;;;;76.20;41.13;;;;;;;1.24;45.56;98904.06;8350590;28;20226;-75
2022/12/17 15:39:30;;;;;;;71.37;39.40;;;;;;;1.26;45.77;98920.25;8350222;28;20229;-75
2022/12/17 15:43:34;;;;;;;64.80;38.30;;;;;;;1.15;45.62;98921.84;8348957;28;20295;-75
2022/12/17 15:47:37;;;;;;;59.83;36.63;;;;;;;1.02;46.18;98930.22;8630243;22;20341;-77
2022/12/17 15:51:40;;;;;;;48.43;34.03;;;;;;;1.04;46.17;98915.78;8314785;28;20468;-76
2022/12/17 15:55:43;;;;;;;53.53;37.30;;;;;;;1.00;46.23;98921.72;8315041;28;20252;-75
2022/12/17 15:59:47;;;;;;;55.53;37.47;;;;;;;0.85;45.87;98912.22;8314961;28;20525;-75
2022/12/17 16:03:50;;;;;;;51.77;37.80;;;;;;;0.69;46.63;98913.75;8313566;28;20245;-79
2022/12/17 16:07:57;;;;;;;52.97;36.47;;;;;;;0.66;46.66;98923.91;8313488;28;20233;-75
2022/12/17 16:12:00;;;;;;;49.37;34.60;;;;;;;0.66;46.13;98934.13;8314601;28;20253;-76
2022/12/17 16:16:05;;;;;;;52.77;36.67;;;;;;;0.45;46.97;98932.19;8314542;28;20230;-78
2022/12/17 16:20:09;;;;;;;50.73;35.33;;;;;;;0.50;46.41;98915.25;8313756;28;20308;-76
2022/12/17 16:24:13;;;;;;;54.10;36.63;;;;;;;0.26;46.52;98933.66;8314104;28;20304;-76
2022/12/17 16:28:16;;;;;;;63.80;40.70;;;;;;;0.28;45.98;98934.53;8314226;28;20231;-75
2022/12/17 16:32:21;;;;;;;57.20;46.53;;;;;;;0.85;43.85;98941.09;8312885;28;20449;-76
2022/12/17 16:36:26;;;;;;;71.10;43.90;;;;;;;0.42;44.79;98942.31;8311817;28;20226;-74
2022/12/17 16:40:31;;;;;;;60.87;38.90;;;;;;;0.22;44.78;98947.19;8313623;28;20580;-76
2022/12/17 16:44:34;;;;;;;74.90;46.50;;;;;;;0.08;44.66;98937.69;8314096;28;20270;-74
2022/12/17 16:48:38;;;;;;;54.37;40.47;;;;;;;0.27;44.34;98943.88;8312606;28;20692;-75
2022/12/17 16:52:42;;;;;;;40.87;28.77;;;;;;;-0.14;45.37;98946.69;8313813;28;20230;-73
2022/12/17 16:56:45;;;;;;;41.40;26.83;;;;;;;-0.41;45.10;98924.25;8313900;28;20234;-76
2022/12/17 17:00:54;;;;;;;37.60;25.40;;;;;;;-0.20;45.00;98952.56;8314046;28;20226;-76
2022/12/17 17:04:58;;;;;;;37.93;25.57;;;;;;;-0.23;44.92;98956.75;8313334;28;20245;-76
2022/12/17 17:09:03;;;;;;;40.67;26.67;;;;;;;-0.52;45.60;98934.25;8313384;28;20237;-74
2022/12/17 17:13:05;;;;;;;45.70;35.63;;;;;;;-0.19;44.49;98938.16;8312468;28;20740;-75
2022/12/17 17:17:09;;;;;;;51.00;37.30;;;;;;;-0.37;44.99;98960.78;8312488;28;20424;-75
2022/12/17 17:21:33;;;;;;;53.33;32.23;;;;;;;-0.48;44.79;98956.38;8313162;28;20423;-75
2022/12/17 17:25:35;;;;;;;58.97;34.20;;;;;;;-0.57;45.31;98963.88;8312532;28;20229;-75
2022/12/17 17:29:58;;;;;;;51.27;33.00;;;;;;;-0.67;44.91;98985.75;8312027;28;20244;-74
2022/12/17 17:34:08;;;;;;;51.10;33.40;;;;;;;-0.80;45.20;98978.75;8312734;28;20318;-75
2022/12/17 17:38:13;;;;;;;53.67;33.30;;;;;;;-0.76;45.11;98985.63;8312702;28;20239;-76
2022/12/17 17:42:16;;;;;;;52.57;33.53;;;;;;;-0.93;44.63;98987.00;8312487;28;20288;-76
2022/12/17 17:46:19;;;;;;;52.57;33.90;;;;;;;-0.88;44.70;98996.41;8311941;28;20237;-74
2022/12/17 17:50:22;;;;;;;51.33;33.60;;;;;;;-0.94;45.05;99003.09;8312372;28;20226;-74
2022/12/17 17:54:26;;;;;;;50.53;33.80;;;;;;;-0.86;44.85;98999.00;8312250;28;20564;-71
2022/12/17 17:58:29;;;;;;;57.10;35.47;;;;;;;-1.08;44.89;99007.94;8312318;28;20230;-73
2022/12/17 18:02:31;;;;;;;53.87;36.90;;;;;;;-1.05;44.48;99010.50;8312386;28;20514;-73
2022/12/17 18:06:37;;;;;;;49.43;33.37;;;;;;;-1.25;44.48;99012.69;8312381;28;20376;-73
2022/12/17 18:10:42;;;;;;;68.37;42.10;;;;;;;-1.46;44.27;99015.66;8312335;28;20230;-73
2022/12/17 18:14:45;;;;;;;59.57;39.00;;;;;;;-1.25;43.79;99025.41;8312271;28;20218;-73
2022/12/17 18:19:09;;;;;;;62.33;39.83;;;;;;;-1.29;43.53;99024.47;8311734;28;20307;-73
2022/12/17 18:23:12;;;;;;;61.97;37.83;;;;;;;-1.25;43.63;99022.84;8312265;28;20463;-73
2022/12/17 18:27:16;;;;;;;64.17;40.17;;;;;;;-1.55;44.38;99023.94;8313205;28;20237;-74
2022/12/17 18:31:20;;;;;;;49.90;33.30;;;;;;;-1.46;43.47;99013.13;8318022;28;20233;-73
2022/12/17 18:35:23;;;;;;;49.67;32.70;;;;;;;-1.57;43.76;99020.50;8317996;28;20230;-72
2022/12/17 18:39:26;;;;;;;48.00;31.23;;;;;;;-1.77;43.74;99022.63;8318080;28;20234;-73
2022/12/17 18:43:30;;;;;;;48.90;29.57;;;;;;;-1.78;43.76;99018.38;8318050;28;20226;-72
2022/12/17 18:47:33;;;;;;;48.30;30.70;;;;;;;-1.67;43.75;99023.69;8317407;28;20234;-76
2022/12/17 18:51:37;;;;;;;48.00;30.97;;;;;;;-1.83;44.11;99025.91;8317406;28;20515;-74
2022/12/17 18:55:40;;;;;;;48.33;31.40;;;;;;;-1.80;44.36;99033.56;8317589;28;20442;-73
2022/12/17 18:59:44;;;;;;;52.10;32.87;;;;;;;-1.74;44.09;99037.06;8317651;28;20226;-72
2022/12/17 19:03:51;;;;;;;52.63;33.73;;;;;;;-2.22;44.59;99041.91;8317356;28;20230;-77
2022/12/17 19:07:54;;;;;;;58.90;35.33;;;;;;;-1.91;43.90;99040.09;8316763;28;20234;-73
2022/12/17 19:11:57;;;;;;;62.27;40.43;;;;;;;-2.02;43.77;99059.28;8317089;28;20226;-73
2022/12/17 19:16:14;;;;;;;68.67;43.13;;;;;;;-2.02;43.15;99047.47;8316792;28;20665;-73
2022/12/17 19:20:18;;;;;;;59.73;37.13;;;;;;;3.92;69.50;99064.56;8316715;28;20226;-73
2022/12/17 19:24:21;;;;;;;50.43;31.93;;;;;;;4.73;45.47;99049.03;8316603;28;20226;-73
2022/12/17 19:28:24;;;;;;;56.23;38.30;;;;;;;0.72;38.61;99054.88;8316561;28;20241;-72
2022/12/17 19:32:28;;;;;;;52.67;36.07;;;;;;;-0.07;39.78;99059.72;8316577;28;20254;-73
2022/12/17 19:36:33;;;;;;;54.50;35.97;;;;;;;-0.84;40.66;99046.53;8316125;28;20249;-73
2022/12/17 19:40:35;;;;;;;51.37;35.50;;;;;;;-1.02;40.94;99057.19;8315432;28;20252;-73
2022/12/17 19:44:38;;;;;;;51.97;39.67;;;;;;;-0.79;40.29;99057.63;8314958;28;20420;-74
2022/12/17 19:48:43;;;;;;;52.13;35.17;;;;;;;-1.47;41.71;99042.72;8315749;28;20451;-74
2022/12/17 19:52:50;;;;;;;49.43;34.20;;;;;;;-1.56;42.05;99062.88;8315915;28;20341;-74
2022/12/17 19:56:54;;;;;;;49.07;33.10;;;;;;;-1.85;42.14;99078.31;8315270;28;20226;-74
2022/12/17 20:00:57;;;;;;;55.70;42.60;;;;;;;-1.53;40.69;99062.94;8313712;28;20724;-73
2022/12/17 20:05:01;;;;;;;52.85;42.67;;;;;;;-1.41;40.63;99068.28;8313945;28;20731;-74
2022/12/17 20:09:06;;;;;;;55.80;38.27;;;;;;;-2.20;41.83;99052.09;8314969;28;20238;-74
2022/12/17 20:13:09;;;;;;;59.40;38.33;;;;;;;-2.36;42.30;99064.44;8315325;28;20288;-74
2022/12/17 20:17:11;;;;;;;64.67;39.60;;;;;;;-2.13;41.67;99070.88;8314706;28;20230;-73
2022/12/17 20:21:16;;;;;;;66.03;40.80;;;;;;;-2.29;41.55;99060.34;8314753;28;20228;-75
2022/12/17 20:25:18;;;;;;;77.07;44.67;;;;;;;-2.43;41.56;99070.16;8314694;28;20219;-75
2022/12/17 20:29:22;;;;;;;70.87;42.80;;;;;;;-2.59;42.06;99076.53;8314616;28;20237;-75
2022/12/17 20:33:25;;;;;;;62.80;40.43;;;;;;;-2.54;42.02;99071.56;8314339;28;20289;-75
2022/12/17 20:37:29;;;;;;;61.90;39.07;;;;;;;-2.58;42.31;99062.16;8314327;28;20253;-75
2022/12/17 20:41:35;;;;;;;63.60;39.87;;;;;;;-2.59;41.87;99050.28;8314288;28;20226;-75
2022/12/17 20:45:37;;;;;;;61.43;39.93;;;;;;;-2.72;42.25;99073.63;8313904;28;20249;-75
2022/12/17 20:49:40;;;;;;;58.00;38.23;;;;;;;-3.02;42.76;99072.84;8313991;28;20302;-75
2022/12/17 20:53:46;;;;;;;58.57;37.00;;;;;;;-2.86;42.56;99083.41;8313895;28;20229;-75
2022/12/17 20:57:50;;;;;;;58.70;37.17;;;;;;;-2.88;41.86;99070.66;8313856;28;20484;-73
2022/12/17 21:01:53;;;;;;;61.23;39.07;;;;;;;-2.64;40.94;99073.00;8313276;28;20237;-72
2022/12/17 21:06:05;;;;;;;63.90;39.83;;;;;;;-2.85;41.54;99080.06;8313562;28;20529;-74
2022/12/17 21:10:10;;;;;;;65.40;40.93;;;;;;;-3.18;41.90;99085.88;8313539;28;20231;-74
2022/12/17 21:14:15;;;;;;;63.03;38.10;;;;;;;-2.89;41.39;99085.84;8313345;28;20242;-76
2022/12/17 21:18:17;;;;;;;64.70;39.67;;;;;;;-2.87;41.06;99092.69;8313495;28;20226;-74
2022/12/17 21:22:20;;;;;;;55.83;34.43;;;;;;;-3.05;40.78;99093.03;8313237;28;20226;-75
2022/12/17 21:26:28;;;;;;;62.57;37.03;;;;;;;-2.97;41.17;99098.31;8312912;28;20557;-74
2022/12/17 21:30:31;;;;;;;53.80;32.60;;;;;;;-2.98;41.18;99099.13;8313307;28;20226;-74
2022/12/17 21:34:34;;;;;;;53.53;32.87;;;;;;;-3.27;41.80;99111.84;8313038;28;20226;-74
2022/12/17 21:38:36;;;;;;;70.00;43.90;;;;;;;-3.32;42.72;99118.44;8312667;28;20649;-74
2022/12/17 21:47:02;;;;;;;48.70;30.60;;;;;;;-3.43;42.21;99128.25;8311976;28;20228;-74
2022/12/17 21:51:05;;;;;;;47.10;30.87;;;;;;;-3.54;42.53;99129.63;8312397;28;20550;-74
2022/12/17 21:55:09;;;;;;;47.53;31.00;;;;;;;-3.32;42.63;99143.78;8312304;28;20234;-74
2022/12/17 21:59:13;;;;;;;47.00;31.00;;;;;;;-3.19;42.11;99140.78;8312503;28;20256;-75
2022/12/17 22:03:15;;;;;;;53.77;33.40;;;;;;;-3.40;41.86;99135.94;8315497;28;20221;-74
2022/12/17 22:07:18;;;;;;;56.57;34.10;;;;;;;-3.57;42.22;99147.25;8318876;28;20230;-74
2022/12/17 22:11:28;;;;;;;62.23;36.77;;;;;;;-3.57;41.67;99150.63;8319243;28;20569;-74
2022/12/17 22:15:33;;;;;;;58.70;35.53;;;;;;;-3.64;42.18;99155.44;8318960;28;20252;-74
2022/12/17 22:19:49;;;;;;;57.17;34.73;;;;;;;-3.75;42.15;99139.91;8318730;28;20260;-72
2022/12/17 22:23:52;;;;;;;52.97;32.73;;;;;;;-3.45;42.09;99160.25;8318685;28;20226;-72
2022/12/17 22:27:55;;;;;;;67.23;40.67;;;;;;;-3.59;42.79;99156.47;8318094;28;20226;-72
2022/12/17 22:36:20;;;;;;;59.90;36.70;;;;;;;-3.58;42.35;99165.75;8318228;28;20320;-74
2022/12/17 22:40:43;;;;;;;61.03;38.60;;;;;;;-3.56;42.20;99161.59;8317977;28;20518;-75
2022/12/17 22:45:07;;;;;;;74.53;41.23;;;;;;;-3.51;41.74;99166.81;8317335;28;20317;-75
2022/12/17 22:49:15;;;;;;;61.07;35.93;;;;;;;-3.67;41.77;99171.41;8317918;28;20230;-75
2022/12/17 22:53:17;;;;;;;64.47;36.53;;;;;;;-3.46;41.32;99172.91;8318192;28;20230;-73
2022/12/17 22:57:21;;;;;;;59.47;34.60;;;;;;;-3.36;41.12;99160.53;8317872;28;20233;-73
2022/12/17 23:01:39;;;;;;;82.60;41.67;;;;;;;-3.39;41.41;99169.72;8317973;28;20226;-72
2022/12/17 23:05:44;;;;;;;84.50;45.63;;;;;;;-3.64;42.13;99168.09;8317510;28;20226;-72
2022/12/17 23:09:46;;;;;;;87.87;45.20;;;;;;;-3.51;42.16;99164.28;8317518;28;20234;-71
2022/12/17 23:13:49;;;;;;;76.73;42.37;;;;;;;-3.62;42.61;99163.94;8315878;28;20238;-71
2022/12/17 23:17:53;;;;;;;74.88;45.63;;;;;;;-3.72;42.66;99147.63;8316587;28;20429;-73
2022/12/17 23:21:57;;;;;;;85.80;46.00;;;;;;;-3.63;41.77;99152.97;8316485;28;20230;-73
2022/12/17 23:26:06;;;;;;;84.10;42.57;;;;;;;-3.82;41.90;99155.75;8316610;28;20226;-72
2022/12/17 23:30:10;;;;;;;69.43;39.30;;;;;;;-3.79;41.69;99164.31;8316686;28;20323;-72
2022/12/17 23:34:13;;;;;;;77.77;40.33;;;;;;;-4.05;42.23;99133.06;8316338;28;20560;-72
2022/12/17 23:38:17;;;;;;;70.23;36.87;;;;;;;-3.94;41.24;99177.31;8316286;28;20226;-73
2022/12/17 23:42:20;;;;;;;70.23;38.10;;;;;;;-3.93;41.17;99173.09;8316205;28;20233;-72
2022/12/17 23:46:24;;;;;;;68.37;37.03;;;;;;;-3.91;41.28;99178.22;8315718;28;20237;-72
2022/12/17 23:50:27;;;;;;;64.13;35.23;;;;;;;-3.94;41.14;99179.00;8316075;28;20301;-72
2022/12/17 23:54:31;;;;;;;74.13;38.00;;;;;;;-4.16;40.72;99178.25;8315917;28;20257;-73
2022/12/17 23:58:34;;;;;;;79.67;39.93;;;;;;;-4.15;40.44;99164.81;8315599;28;20242;-72
